sensor_id;sensor_type;location;lat;lon;timestamp;P1;durP1;ratioP1;P2;durP2;ratioP2
13989;SDS011;7069;52.528;13.316;2023-05-08T00:00:00;4.70;;;4.30;;
13989;SDS011;7069;52.528;13.316;2023-05-08T00:02:30;4.57;;;4.10;;
13989;SDS011;7069;52.528;13.316;2023-05-08T00:04:57;4.53;;;4.13;;
13989;SDS011;7069;52.528;13.316;2023-05-08T00:07:23;4.20;;;3.90;;
13989;SDS011;7069;52.528;13.316;2023-05-08T00:09:50;4.63;;;4.17;;
13989;SDS011;7069;52.528;13.316;2023-05-08T00:12:16;4.30;;;3.90;;
13989;SDS011;7069;52.528;13.316;2023-05-08T00:14:43;4.57;;;3.87;;
13989;SDS011;7069;52.528;13.316;2023-05-08T00:17:09;4.27;;;3.80;;
13989;SDS011;7069;52.528;13.316;2023-05-08T00:19:38;4.63;;;4.23;;
13989;SDS011;7069;52.528;13.316;2023-05-08T00:22:04;5.23;;;4.20;;
13989;SDS011;7069;52.528;13.316;2023-05-08T00:24:31;5.83;;;4.00;;
13989;SDS011;7069;52.528;13.316;2023-05-08T00:26:57;4.97;;;4.37;;
13989;SDS011;7069;52.528;13.316;2023-05-08T00:29:23;4.10;;;3.80;;
13989;SDS011;7069;52.528;13.316;2023-05-08T00:31:50;4.07;;;3.67;;
13989;SDS011;7069;52.528;13.316;2023-05-08T00:34:16;4.40;;;4.00;;
13989;SDS011;7069;52.528;13.316;2023-05-08T00:36:44;4.13;;;3.83;;
13989;SDS011;7069;52.528;13.316;2023-05-08T00:39:11;4.43;;;4.03;;
13989;SDS011;7069;52.528;13.316;2023-05-08T00:41:37;4.37;;;4.07;;
13989;SDS011;7069;52.528;13.316;2023-05-08T00:44:04;4.30;;;3.90;;
13989;SDS011;7069;52.528;13.316;2023-05-08T00:46:31;4.40;;;4.10;;
13989;SDS011;7069;52.528;13.316;2023-05-08T00:48:57;5.67;;;4.30;;
13989;SDS011;7069;52.528;13.316;2023-05-08T00:51:24;5.00;;;4.60;;
13989;SDS011;7069;52.528;13.316;2023-05-08T00:53:53;6.00;;;5.20;;
13989;SDS011;7069;52.528;13.316;2023-05-08T00:56:19;5.77;;;4.67;;
13989;SDS011;7069;52.528;13.316;2023-05-08T00:58:47;4.40;;;4.00;;
13989;SDS011;7069;52.528;13.316;2023-05-08T01:01:14;5.00;;;4.50;;
13989;SDS011;7069;52.528;13.316;2023-05-08T01:03:41;4.40;;;4.03;;
13989;SDS011;7069;52.528;13.316;2023-05-08T01:06:08;6.20;;;4.87;;
13989;SDS011;7069;52.528;13.316;2023-05-08T01:08:35;5.27;;;4.77;;
13989;SDS011;7069;52.528;13.316;2023-05-08T01:11:06;5.47;;;4.47;;
13989;SDS011;7069;52.528;13.316;2023-05-08T01:13:39;5.40;;;4.90;;
13989;SDS011;7069;52.528;13.316;2023-05-08T01:16:10;6.20;;;4.77;;
13989;SDS011;7069;52.528;13.316;2023-05-08T01:18:41;4.87;;;4.47;;
13989;SDS011;7069;52.528;13.316;2023-05-08T01:21:10;5.13;;;4.63;;
13989;SDS011;7069;52.528;13.316;2023-05-08T01:23:52;7.83;;;4.93;;
13989;SDS011;7069;52.528;13.316;2023-05-08T01:29:17;5.27;;;4.77;;
13989;SDS011;7069;52.528;13.316;2023-05-08T01:31:59;5.53;;;5.13;;
13989;SDS011;7069;52.528;13.316;2023-05-08T01:34:30;5.30;;;4.90;;
13989;SDS011;7069;52.528;13.316;2023-05-08T01:36:58;5.37;;;4.87;;
13989;SDS011;7069;52.528;13.316;2023-05-08T01:39:28;5.47;;;4.97;;
13989;SDS011;7069;52.528;13.316;2023-05-08T01:41:58;5.90;;;4.93;;
13989;SDS011;7069;52.528;13.316;2023-05-08T01:44:27;4.93;;;4.53;;
13989;SDS011;7069;52.528;13.316;2023-05-08T01:46:54;6.33;;;5.00;;
13989;SDS011;7069;52.528;13.316;2023-05-08T01:49:26;5.03;;;4.53;;
13989;SDS011;7069;52.528;13.316;2023-05-08T01:51:55;7.97;;;4.93;;
13989;SDS011;7069;52.528;13.316;2023-05-08T01:54:23;5.20;;;4.70;;
13989;SDS011;7069;52.528;13.316;2023-05-08T01:56:51;5.13;;;4.63;;
13989;SDS011;7069;52.528;13.316;2023-05-08T01:59:20;5.67;;;5.20;;
13989;SDS011;7069;52.528;13.316;2023-05-08T02:01:47;5.23;;;4.80;;
13989;SDS011;7069;52.528;13.316;2023-05-08T02:04:14;5.50;;;5.03;;
13989;SDS011;7069;52.528;13.316;2023-05-08T02:06:43;5.63;;;5.00;;
13989;SDS011;7069;52.528;13.316;2023-05-08T02:09:10;5.43;;;4.93;;
13989;SDS011;7069;52.528;13.316;2023-05-08T02:11:38;4.63;;;4.23;;
13989;SDS011;7069;52.528;13.316;2023-05-08T02:14:05;5.50;;;5.00;;
13989;SDS011;7069;52.528;13.316;2023-05-08T02:16:32;5.97;;;5.47;;
13989;SDS011;7069;52.528;13.316;2023-05-08T02:18:59;5.83;;;5.30;;
13989;SDS011;7069;52.528;13.316;2023-05-08T02:21:27;5.63;;;4.93;;
13989;SDS011;7069;52.528;13.316;2023-05-08T02:23:56;5.83;;;5.33;;
13989;SDS011;7069;52.528;13.316;2023-05-08T02:26:23;6.00;;;5.50;;
13989;SDS011;7069;52.528;13.316;2023-05-08T02:28:50;5.63;;;5.13;;
13989;SDS011;7069;52.528;13.316;2023-05-08T02:31:18;6.20;;;5.70;;
13989;SDS011;7069;52.528;13.316;2023-05-08T02:33:45;7.03;;;5.37;;
13989;SDS011;7069;52.528;13.316;2023-05-08T02:36:15;6.73;;;6.13;;
13989;SDS011;7069;52.528;13.316;2023-05-08T02:38:43;6.27;;;5.63;;
13989;SDS011;7069;52.528;13.316;2023-05-08T02:41:12;5.53;;;5.03;;
13989;SDS011;7069;52.528;13.316;2023-05-08T02:43:39;5.77;;;5.20;;
13989;SDS011;7069;52.528;13.316;2023-05-08T02:46:08;6.23;;;5.67;;
13989;SDS011;7069;52.528;13.316;2023-05-08T02:48:37;7.77;;;5.57;;
13989;SDS011;7069;52.528;13.316;2023-05-08T02:51:04;6.40;;;5.80;;
13989;SDS011;7069;52.528;13.316;2023-05-08T02:53:36;5.87;;;5.30;;
13989;SDS011;7069;52.528;13.316;2023-05-08T02:56:07;6.10;;;5.60;;
13989;SDS011;7069;52.528;13.316;2023-05-08T02:58:39;6.67;;;5.90;;
13989;SDS011;7069;52.528;13.316;2023-05-08T03:01:10;5.67;;;5.17;;
13989;SDS011;7069;52.528;13.316;2023-05-08T03:03:44;8.40;;;5.00;;
13989;SDS011;7069;52.528;13.316;2023-05-08T03:06:12;7.33;;;6.47;;
13989;SDS011;7069;52.528;13.316;2023-05-08T03:08:39;6.37;;;5.57;;
13989;SDS011;7069;52.528;13.316;2023-05-08T03:11:07;6.00;;;5.40;;
13989;SDS011;7069;52.528;13.316;2023-05-08T03:13:39;5.80;;;5.27;;
13989;SDS011;7069;52.528;13.316;2023-05-08T03:16:08;6.10;;;5.50;;
13989;SDS011;7069;52.528;13.316;2023-05-08T03:18:39;8.30;;;6.20;;
13989;SDS011;7069;52.528;13.316;2023-05-08T03:21:07;6.90;;;6.03;;
13989;SDS011;7069;52.528;13.316;2023-05-08T03:23:34;5.77;;;5.27;;
13989;SDS011;7069;52.528;13.316;2023-05-08T03:26:02;6.97;;;6.37;;
13989;SDS011;7069;52.528;13.316;2023-05-08T03:28:30;6.67;;;6.07;;
13989;SDS011;7069;52.528;13.316;2023-05-08T03:30:58;6.70;;;5.93;;
13989;SDS011;7069;52.528;13.316;2023-05-08T03:33:26;5.93;;;5.33;;
13989;SDS011;7069;52.528;13.316;2023-05-08T03:35:53;5.70;;;5.20;;
13989;SDS011;7069;52.528;13.316;2023-05-08T03:38:20;7.00;;;5.83;;
13989;SDS011;7069;52.528;13.316;2023-05-08T03:40:47;7.23;;;6.53;;
13989;SDS011;7069;52.528;13.316;2023-05-08T03:43:14;7.97;;;5.80;;
13989;SDS011;7069;52.528;13.316;2023-05-08T03:45:41;6.53;;;5.83;;
13989;SDS011;7069;52.528;13.316;2023-05-08T03:48:10;6.63;;;5.80;;
13989;SDS011;7069;52.528;13.316;2023-05-08T03:50:38;5.73;;;5.23;;
13989;SDS011;7069;52.528;13.316;2023-05-08T03:53:05;6.60;;;6.07;;
13989;SDS011;7069;52.528;13.316;2023-05-08T03:55:31;6.07;;;5.53;;
13989;SDS011;7069;52.528;13.316;2023-05-08T03:58:00;5.93;;;5.10;;
13989;SDS011;7069;52.528;13.316;2023-05-08T04:00:31;6.60;;;6.00;;
13989;SDS011;7069;52.528;13.316;2023-05-08T04:03:06;6.33;;;5.73;;
13989;SDS011;7069;52.528;13.316;2023-05-08T04:05:37;6.53;;;5.60;;
13989;SDS011;7069;52.528;13.316;2023-05-08T04:08:08;6.23;;;5.67;;
13989;SDS011;7069;52.528;13.316;2023-05-08T04:10:41;6.67;;;5.93;;
13989;SDS011;7069;52.528;13.316;2023-05-08T04:13:09;5.87;;;5.37;;
13989;SDS011;7069;52.528;13.316;2023-05-08T04:15:38;6.60;;;5.97;;
13989;SDS011;7069;52.528;13.316;2023-05-08T04:18:07;6.70;;;6.00;;
13989;SDS011;7069;52.528;13.316;2023-05-08T04:20:35;6.53;;;5.93;;
13989;SDS011;7069;52.528;13.316;2023-05-08T04:23:05;6.83;;;5.97;;
13989;SDS011;7069;52.528;13.316;2023-05-08T04:25:33;7.33;;;5.63;;
13989;SDS011;7069;52.528;13.316;2023-05-08T04:28:01;7.10;;;6.40;;
13989;SDS011;7069;52.528;13.316;2023-05-08T04:30:28;6.47;;;5.83;;
13989;SDS011;7069;52.528;13.316;2023-05-08T04:32:55;7.13;;;6.43;;
13989;SDS011;7069;52.528;13.316;2023-05-08T04:35:22;5.83;;;5.23;;
13989;SDS011;7069;52.528;13.316;2023-05-08T04:37:48;6.97;;;6.27;;
13989;SDS011;7069;52.528;13.316;2023-05-08T04:40:16;6.27;;;5.77;;
13989;SDS011;7069;52.528;13.316;2023-05-08T04:42:43;6.10;;;5.50;;
13989;SDS011;7069;52.528;13.316;2023-05-08T04:45:11;6.23;;;5.63;;
13989;SDS011;7069;52.528;13.316;2023-05-08T04:47:38;5.93;;;5.37;;
13989;SDS011;7069;52.528;13.316;2023-05-08T04:50:05;6.37;;;5.77;;
13989;SDS011;7069;52.528;13.316;2023-05-08T04:52:31;6.57;;;5.87;;
13989;SDS011;7069;52.528;13.316;2023-05-08T04:54:58;8.00;;;6.20;;
13989;SDS011;7069;52.528;13.316;2023-05-08T04:57:26;8.30;;;5.80;;
13989;SDS011;7069;52.528;13.316;2023-05-08T04:59:52;6.10;;;5.60;;
13989;SDS011;7069;52.528;13.316;2023-05-08T05:02:19;6.30;;;5.70;;
13989;SDS011;7069;52.528;13.316;2023-05-08T05:04:45;6.80;;;6.20;;
13989;SDS011;7069;52.528;13.316;2023-05-08T05:07:12;5.60;;;5.10;;
13989;SDS011;7069;52.528;13.316;2023-05-08T05:09:38;7.77;;;5.80;;
13989;SDS011;7069;52.528;13.316;2023-05-08T05:12:05;7.47;;;6.57;;
13989;SDS011;7069;52.528;13.316;2023-05-08T05:14:33;8.13;;;5.80;;
13989;SDS011;7069;52.528;13.316;2023-05-08T05:16:59;6.53;;;5.23;;
13989;SDS011;7069;52.528;13.316;2023-05-08T05:19:26;6.70;;;5.37;;
13989;SDS011;7069;52.528;13.316;2023-05-08T05:21:53;6.30;;;5.70;;
13989;SDS011;7069;52.528;13.316;2023-05-08T05:24:20;5.73;;;5.13;;
13989;SDS011;7069;52.528;13.316;2023-05-08T05:26:46;5.83;;;5.20;;
13989;SDS011;7069;52.528;13.316;2023-05-08T05:29:13;7.67;;;5.10;;
13989;SDS011;7069;52.528;13.316;2023-05-08T05:31:41;7.17;;;5.13;;
13989;SDS011;7069;52.528;13.316;2023-05-08T05:34:07;6.83;;;6.07;;
13989;SDS011;7069;52.528;13.316;2023-05-08T05:36:34;5.77;;;5.17;;
13989;SDS011;7069;52.528;13.316;2023-05-08T05:39:01;8.03;;;5.70;;
13989;SDS011;7069;52.528;13.316;2023-05-08T05:41:28;5.33;;;4.83;;
13989;SDS011;7069;52.528;13.316;2023-05-08T05:43:54;6.53;;;5.47;;
13989;SDS011;7069;52.528;13.316;2023-05-08T05:46:21;7.23;;;5.67;;
13989;SDS011;7069;52.528;13.316;2023-05-08T05:48:53;8.00;;;5.00;;
13989;SDS011;7069;52.528;13.316;2023-05-08T05:51:20;6.83;;;5.47;;
13989;SDS011;7069;52.528;13.316;2023-05-08T05:53:46;4.50;;;4.10;;
13989;SDS011;7069;52.528;13.316;2023-05-08T05:56:13;7.50;;;5.13;;
13989;SDS011;7069;52.528;13.316;2023-05-08T05:58:40;4.87;;;4.23;;
13989;SDS011;7069;52.528;13.316;2023-05-08T06:01:09;4.43;;;4.03;;
13989;SDS011;7069;52.528;13.316;2023-05-08T06:03:35;5.07;;;4.67;;
13989;SDS011;7069;52.528;13.316;2023-05-08T06:06:04;5.13;;;4.60;;
13989;SDS011;7069;52.528;13.316;2023-05-08T06:08:30;6.07;;;4.17;;
13989;SDS011;7069;52.528;13.316;2023-05-08T06:10:57;4.80;;;4.27;;
13989;SDS011;7069;52.528;13.316;2023-05-08T06:13:24;5.87;;;4.33;;
13989;SDS011;7069;52.528;13.316;2023-05-08T06:15:50;3.97;;;3.67;;
13989;SDS011;7069;52.528;13.316;2023-05-08T06:18:20;4.50;;;4.03;;
13989;SDS011;7069;52.528;13.316;2023-05-08T06:20:47;4.30;;;3.87;;
13989;SDS011;7069;52.528;13.316;2023-05-08T06:23:15;4.63;;;3.87;;
13989;SDS011;7069;52.528;13.316;2023-05-08T06:25:42;3.63;;;3.33;;
13989;SDS011;7069;52.528;13.316;2023-05-08T06:28:08;4.17;;;3.77;;
13989;SDS011;7069;52.528;13.316;2023-05-08T06:30:35;3.73;;;3.43;;
13989;SDS011;7069;52.528;13.316;2023-05-08T06:33:01;3.50;;;3.20;;
13989;SDS011;7069;52.528;13.316;2023-05-08T06:35:28;4.17;;;3.73;;
13989;SDS011;7069;52.528;13.316;2023-05-08T06:37:54;6.13;;;3.37;;
13989;SDS011;7069;52.528;13.316;2023-05-08T06:40:22;3.80;;;3.50;;
13989;SDS011;7069;52.528;13.316;2023-05-08T06:42:49;4.83;;;2.90;;
13989;SDS011;7069;52.528;13.316;2023-05-08T06:45:15;3.43;;;3.17;;
13989;SDS011;7069;52.528;13.316;2023-05-08T06:47:42;3.47;;;2.60;;
13989;SDS011;7069;52.528;13.316;2023-05-08T06:50:09;3.60;;;3.30;;
13989;SDS011;7069;52.528;13.316;2023-05-08T06:52:36;3.93;;;3.30;;
13989;SDS011;7069;52.528;13.316;2023-05-08T06:55:02;2.77;;;2.47;;
13989;SDS011;7069;52.528;13.316;2023-05-08T06:57:30;6.67;;;3.63;;
13989;SDS011;7069;52.528;13.316;2023-05-08T06:59:57;3.10;;;2.90;;
13989;SDS011;7069;52.528;13.316;2023-05-08T07:02:23;5.40;;;3.17;;
13989;SDS011;7069;52.528;13.316;2023-05-08T07:04:50;3.33;;;3.03;;
13989;SDS011;7069;52.528;13.316;2023-05-08T07:07:16;4.20;;;3.80;;
13989;SDS011;7069;52.528;13.316;2023-05-08T07:09:43;4.33;;;3.37;;
13989;SDS011;7069;52.528;13.316;2023-05-08T07:12:09;5.13;;;3.17;;
13989;SDS011;7069;52.528;13.316;2023-05-08T07:14:37;3.63;;;3.33;;
13989;SDS011;7069;52.528;13.316;2023-05-08T07:17:03;3.43;;;3.13;;
13989;SDS011;7069;52.528;13.316;2023-05-08T07:19:31;2.80;;;2.60;;
13989;SDS011;7069;52.528;13.316;2023-05-08T07:21:58;3.27;;;2.93;;
13989;SDS011;7069;52.528;13.316;2023-05-08T07:24:25;4.07;;;3.20;;
13989;SDS011;7069;52.528;13.316;2023-05-08T07:26:52;3.23;;;2.93;;
13989;SDS011;7069;52.528;13.316;2023-05-08T07:29:18;3.33;;;2.90;;
13989;SDS011;7069;52.528;13.316;2023-05-08T07:31:46;2.83;;;2.63;;
13989;SDS011;7069;52.528;13.316;2023-05-08T07:34:13;3.05;;;2.85;;
13989;SDS011;7069;52.528;13.316;2023-05-08T07:36:41;6.40;;;2.95;;
13989;SDS011;7069;52.528;13.316;2023-05-08T07:39:07;2.60;;;2.40;;
13989;SDS011;7069;52.528;13.316;2023-05-08T07:41:35;3.53;;;2.45;;
13989;SDS011;7069;52.528;13.316;2023-05-08T07:44:03;3.00;;;2.77;;
13989;SDS011;7069;52.528;13.316;2023-05-08T07:46:29;2.50;;;2.30;;
13989;SDS011;7069;52.528;13.316;2023-05-08T07:48:57;2.30;;;2.10;;
13989;SDS011;7069;52.528;13.316;2023-05-08T07:51:23;3.78;;;2.67;;
13989;SDS011;7069;52.528;13.316;2023-05-08T07:53:50;3.97;;;2.88;;
13989;SDS011;7069;52.528;13.316;2023-05-08T07:56:18;2.78;;;2.58;;
13989;SDS011;7069;52.528;13.316;2023-05-08T07:58:45;2.65;;;2.30;;
13989;SDS011;7069;52.528;13.316;2023-05-08T08:01:12;2.80;;;2.60;;
13989;SDS011;7069;52.528;13.316;2023-05-08T08:03:41;3.00;;;2.22;;
13989;SDS011;7069;52.528;13.316;2023-05-08T08:06:09;3.42;;;2.60;;
13989;SDS011;7069;52.528;13.316;2023-05-08T08:08:36;3.63;;;2.88;;
13989;SDS011;7069;52.528;13.316;2023-05-08T08:11:03;2.35;;;2.15;;
13989;SDS011;7069;52.528;13.316;2023-05-08T08:13:29;2.60;;;2.40;;
13989;SDS011;7069;52.528;13.316;2023-05-08T08:15:56;2.60;;;2.40;;
13989;SDS011;7069;52.528;13.316;2023-05-08T08:18:23;3.13;;;2.53;;
13989;SDS011;7069;52.528;13.316;2023-05-08T08:20:50;6.30;;;2.90;;
13989;SDS011;7069;52.528;13.316;2023-05-08T08:23:18;5.82;;;2.20;;
13989;SDS011;7069;52.528;13.316;2023-05-08T08:25:44;5.82;;;2.47;;
13989;SDS011;7069;52.528;13.316;2023-05-08T08:28:11;2.97;;;2.78;;
13989;SDS011;7069;52.528;13.316;2023-05-08T08:30:37;2.70;;;2.50;;
13989;SDS011;7069;52.528;13.316;2023-05-08T08:33:04;2.83;;;2.63;;
13989;SDS011;7069;52.528;13.316;2023-05-08T08:35:31;5.75;;;2.70;;
13989;SDS011;7069;52.528;13.316;2023-05-08T08:37:57;3.28;;;2.50;;
13989;SDS011;7069;52.528;13.316;2023-05-08T08:40:26;6.18;;;2.55;;
13989;SDS011;7069;52.528;13.316;2023-05-08T08:42:53;2.90;;;2.20;;
13989;SDS011;7069;52.528;13.316;2023-05-08T08:45:19;4.57;;;2.00;;
13989;SDS011;7069;52.528;13.316;2023-05-08T08:47:46;5.25;;;2.72;;
13989;SDS011;7069;52.528;13.316;2023-05-08T08:50:13;2.85;;;2.55;;
13989;SDS011;7069;52.528;13.316;2023-05-08T08:52:42;2.85;;;2.38;;
13989;SDS011;7069;52.528;13.316;2023-05-08T08:55:10;2.58;;;2.38;;
13989;SDS011;7069;52.528;13.316;2023-05-08T08:57:41;2.83;;;2.30;;
13989;SDS011;7069;52.528;13.316;2023-05-08T09:00:10;2.53;;;2.33;;
13989;SDS011;7069;52.528;13.316;2023-05-08T09:02:37;2.33;;;2.08;;
13989;SDS011;7069;52.528;13.316;2023-05-08T09:05:04;4.50;;;2.53;;
13989;SDS011;7069;52.528;13.316;2023-05-08T09:07:31;3.55;;;1.92;;
13989;SDS011;7069;52.528;13.316;2023-05-08T09:09:57;2.00;;;1.90;;
13989;SDS011;7069;52.528;13.316;2023-05-08T09:12:24;2.47;;;2.28;;
13989;SDS011;7069;52.528;13.316;2023-05-08T09:14:52;3.30;;;2.03;;
13989;SDS011;7069;52.528;13.316;2023-05-08T09:17:18;5.13;;;2.72;;
13989;SDS011;7069;52.528;13.316;2023-05-08T09:19:46;2.65;;;2.28;;
13989;SDS011;7069;52.528;13.316;2023-05-08T09:22:13;2.38;;;1.80;;
13989;SDS011;7069;52.528;13.316;2023-05-08T09:24:53;4.22;;;2.83;;
13989;SDS011;7069;52.528;13.316;2023-05-08T09:27:19;2.30;;;2.10;;
13989;SDS011;7069;52.528;13.316;2023-05-08T09:29:50;5.00;;;2.17;;
13989;SDS011;7069;52.528;13.316;2023-05-08T09:32:24;8.38;;;2.30;;
13989;SDS011;7069;52.528;13.316;2023-05-08T09:34:51;2.28;;;2.08;;
13989;SDS011;7069;52.528;13.316;2023-05-08T09:37:17;2.50;;;2.30;;
13989;SDS011;7069;52.528;13.316;2023-05-08T09:39:44;2.58;;;2.38;;
13989;SDS011;7069;52.528;13.316;2023-05-08T09:42:12;6.32;;;3.03;;
13989;SDS011;7069;52.528;13.316;2023-05-08T09:44:45;3.63;;;2.72;;
13989;SDS011;7069;52.528;13.316;2023-05-08T09:47:12;2.33;;;2.13;;
13989;SDS011;7069;52.528;13.316;2023-05-08T09:49:39;2.72;;;2.20;;
13989;SDS011;7069;52.528;13.316;2023-05-08T09:52:21;2.75;;;2.13;;
13989;SDS011;7069;52.528;13.316;2023-05-08T09:54:48;2.42;;;2.22;;
13989;SDS011;7069;52.528;13.316;2023-05-08T09:57:14;3.25;;;2.88;;
13989;SDS011;7069;52.528;13.316;2023-05-08T09:59:41;2.70;;;2.47;;
13989;SDS011;7069;52.528;13.316;2023-05-08T10:02:10;5.38;;;2.10;;
13989;SDS011;7069;52.528;13.316;2023-05-08T10:04:41;3.30;;;2.85;;
13989;SDS011;7069;52.528;13.316;2023-05-08T10:07:08;4.93;;;3.28;;
13989;SDS011;7069;52.528;13.316;2023-05-08T10:09:34;6.97;;;3.33;;
13989;SDS011;7069;52.528;13.316;2023-05-08T10:12:01;2.50;;;2.17;;
13989;SDS011;7069;52.528;13.316;2023-05-08T10:14:28;3.00;;;2.60;;
13989;SDS011;7069;52.528;13.316;2023-05-08T10:16:54;2.42;;;1.90;;
13989;SDS011;7069;52.528;13.316;2023-05-08T10:19:21;2.17;;;2.08;;
13989;SDS011;7069;52.528;13.316;2023-05-08T10:21:51;2.60;;;2.20;;
13989;SDS011;7069;52.528;13.316;2023-05-08T10:24:18;2.50;;;2.30;;
13989;SDS011;7069;52.528;13.316;2023-05-08T10:26:51;3.67;;;2.40;;
13989;SDS011;7069;52.528;13.316;2023-05-08T10:29:20;2.95;;;1.98;;
13989;SDS011;7069;52.528;13.316;2023-05-08T10:31:46;2.83;;;2.15;;
13989;SDS011;7069;52.528;13.316;2023-05-08T10:34:17;2.78;;;2.30;;
13989;SDS011;7069;52.528;13.316;2023-05-08T10:36:44;2.97;;;2.53;;
13989;SDS011;7069;52.528;13.316;2023-05-08T10:39:13;4.35;;;2.65;;
13989;SDS011;7069;52.528;13.316;2023-05-08T10:41:39;2.25;;;2.05;;
13989;SDS011;7069;52.528;13.316;2023-05-08T10:44:06;2.85;;;2.42;;
13989;SDS011;7069;52.528;13.316;2023-05-08T10:46:35;2.22;;;2.00;;
13989;SDS011;7069;52.528;13.316;2023-05-08T10:49:05;2.40;;;2.00;;
13989;SDS011;7069;52.528;13.316;2023-05-08T10:51:36;3.53;;;2.20;;
13989;SDS011;7069;52.528;13.316;2023-05-08T10:54:04;5.75;;;2.42;;
13989;SDS011;7069;52.528;13.316;2023-05-08T10:56:36;2.40;;;2.20;;
13989;SDS011;7069;52.528;13.316;2023-05-08T10:59:03;5.75;;;2.00;;
13989;SDS011;7069;52.528;13.316;2023-05-08T11:01:30;4.93;;;1.90;;
13989;SDS011;7069;52.528;13.316;2023-05-08T11:03:56;1.65;;;1.55;;
13989;SDS011;7069;52.528;13.316;2023-05-08T11:06:42;3.33;;;1.92;;
13989;SDS011;7069;52.528;13.316;2023-05-08T11:09:13;5.60;;;2.15;;
13989;SDS011;7069;52.528;13.316;2023-05-08T11:11:41;3.95;;;2.05;;
13989;SDS011;7069;52.528;13.316;2023-05-08T11:14:14;2.78;;;2.13;;
13989;SDS011;7069;52.528;13.316;2023-05-08T11:19:26;2.97;;;2.00;;
13989;SDS011;7069;52.528;13.316;2023-05-08T11:22:15;1.80;;;1.70;;
13989;SDS011;7069;52.528;13.316;2023-05-08T11:24:49;3.95;;;2.33;;
13989;SDS011;7069;52.528;13.316;2023-05-08T11:27:18;2.30;;;2.10;;
13989;SDS011;7069;52.528;13.316;2023-05-08T11:35:41;2.22;;;2.03;;
13989;SDS011;7069;52.528;13.316;2023-05-08T11:38:22;3.33;;;2.15;;
13989;SDS011;7069;52.528;13.316;2023-05-08T11:40:55;5.20;;;1.85;;
13989;SDS011;7069;52.528;13.316;2023-05-08T11:43:33;3.33;;;2.05;;
13989;SDS011;7069;52.528;13.316;2023-05-08T11:46:06;2.65;;;1.95;;
13989;SDS011;7069;52.528;13.316;2023-05-08T11:48:33;1.98;;;1.88;;
13989;SDS011;7069;52.528;13.316;2023-05-08T11:51:00;2.55;;;2.17;;
13989;SDS011;7069;52.528;13.316;2023-05-08T11:53:26;5.07;;;1.80;;
13989;SDS011;7069;52.528;13.316;2023-05-08T11:55:53;5.95;;;2.20;;
13989;SDS011;7069;52.528;13.316;2023-05-08T11:58:19;12.32;;;2.58;;
13989;SDS011;7069;52.528;13.316;2023-05-08T12:00:47;2.80;;;2.13;;
13989;SDS011;7069;52.528;13.316;2023-05-08T12:03:14;3.20;;;2.90;;
13989;SDS011;7069;52.528;13.316;2023-05-08T12:05:40;4.10;;;2.25;;
13989;SDS011;7069;52.528;13.316;2023-05-08T12:08:07;5.90;;;1.90;;
13989;SDS011;7069;52.528;13.316;2023-05-08T12:10:38;2.90;;;2.40;;
13989;SDS011;7069;52.528;13.316;2023-05-08T12:13:14;2.83;;;1.52;;
13989;SDS011;7069;52.528;13.316;2023-05-08T12:15:40;3.90;;;2.20;;
13989;SDS011;7069;52.528;13.316;2023-05-08T12:18:08;3.65;;;1.95;;
13989;SDS011;7069;52.528;13.316;2023-05-08T12:20:34;2.45;;;1.92;;
13989;SDS011;7069;52.528;13.316;2023-05-08T12:23:01;2.67;;;2.00;;
13989;SDS011;7069;52.528;13.316;2023-05-08T12:25:27;6.30;;;2.08;;
13989;SDS011;7069;52.528;13.316;2023-05-08T12:27:54;3.35;;;2.30;;
13989;SDS011;7069;52.528;13.316;2023-05-08T12:30:21;4.47;;;1.90;;
13989;SDS011;7069;52.528;13.316;2023-05-08T12:32:48;4.03;;;1.58;;
13989;SDS011;7069;52.528;13.316;2023-05-08T12:35:16;2.15;;;1.95;;
13989;SDS011;7069;52.528;13.316;2023-05-08T12:37:43;3.65;;;1.80;;
13989;SDS011;7069;52.528;13.316;2023-05-08T12:40:21;4.45;;;2.58;;
13989;SDS011;7069;52.528;13.316;2023-05-08T12:42:49;4.68;;;1.80;;
13989;SDS011;7069;52.528;13.316;2023-05-08T12:45:16;2.90;;;2.45;;
13989;SDS011;7069;52.528;13.316;2023-05-08T12:47:46;1.90;;;1.80;;
13989;SDS011;7069;52.528;13.316;2023-05-08T12:50:13;3.25;;;2.00;;
13989;SDS011;7069;52.528;13.316;2023-05-08T12:52:41;3.90;;;1.52;;
13989;SDS011;7069;52.528;13.316;2023-05-08T12:55:18;1.75;;;1.65;;
13989;SDS011;7069;52.528;13.316;2023-05-08T12:57:45;4.03;;;2.63;;
13989;SDS011;7069;52.528;13.316;2023-05-08T13:00:12;2.47;;;2.28;;
13989;SDS011;7069;52.528;13.316;2023-05-08T13:02:41;3.15;;;1.98;;
13989;SDS011;7069;52.528;13.316;2023-05-08T13:05:17;3.42;;;1.88;;
13989;SDS011;7069;52.528;13.316;2023-05-08T13:07:44;2.40;;;1.95;;
13989;SDS011;7069;52.528;13.316;2023-05-08T13:10:11;2.38;;;2.13;;
13989;SDS011;7069;52.528;13.316;2023-05-08T13:12:37;3.47;;;1.33;;
13989;SDS011;7069;52.528;13.316;2023-05-08T13:15:04;1.92;;;1.73;;
13989;SDS011;7069;52.528;13.316;2023-05-08T13:17:30;3.22;;;1.77;;
13989;SDS011;7069;52.528;13.316;2023-05-08T13:19:57;2.17;;;1.90;;
13989;SDS011;7069;52.528;13.316;2023-05-08T13:22:23;2.08;;;1.92;;
13989;SDS011;7069;52.528;13.316;2023-05-08T13:24:52;2.17;;;1.90;;
13989;SDS011;7069;52.528;13.316;2023-05-08T13:27:18;2.33;;;1.70;;
13989;SDS011;7069;52.528;13.316;2023-05-08T13:29:44;2.58;;;1.73;;
13989;SDS011;7069;52.528;13.316;2023-05-08T13:32:11;1.90;;;1.70;;
13989;SDS011;7069;52.528;13.316;2023-05-08T13:34:37;4.93;;;2.20;;
13989;SDS011;7069;52.528;13.316;2023-05-08T13:37:03;3.03;;;1.80;;
13989;SDS011;7069;52.528;13.316;2023-05-08T13:39:30;1.98;;;1.80;;
13989;SDS011;7069;52.528;13.316;2023-05-08T13:42:02;2.38;;;1.85;;
13989;SDS011;7069;52.528;13.316;2023-05-08T13:44:29;2.67;;;1.58;;
13989;SDS011;7069;52.528;13.316;2023-05-08T13:46:55;4.07;;;1.90;;
13989;SDS011;7069;52.528;13.316;2023-05-08T13:49:21;2.45;;;1.70;;
13989;SDS011;7069;52.528;13.316;2023-05-08T13:51:48;2.15;;;1.90;;
13989;SDS011;7069;52.528;13.316;2023-05-08T13:54:14;3.90;;;1.77;;
13989;SDS011;7069;52.528;13.316;2023-05-08T13:56:41;4.10;;;1.60;;
13989;SDS011;7069;52.528;13.316;2023-05-08T13:59:09;3.97;;;2.00;;
13989;SDS011;7069;52.528;13.316;2023-05-08T14:01:36;1.52;;;1.42;;
13989;SDS011;7069;52.528;13.316;2023-05-08T14:04:03;2.13;;;1.70;;
13989;SDS011;7069;52.528;13.316;2023-05-08T14:06:29;1.70;;;1.58;;
13989;SDS011;7069;52.528;13.316;2023-05-08T14:08:56;1.88;;;1.45;;
13989;SDS011;7069;52.528;13.316;2023-05-08T14:11:23;1.85;;;1.45;;
13989;SDS011;7069;52.528;13.316;2023-05-08T14:13:49;2.50;;;2.10;;
13989;SDS011;7069;52.528;13.316;2023-05-08T14:16:17;2.08;;;1.40;;
13989;SDS011;7069;52.528;13.316;2023-05-08T14:18:44;2.22;;;1.75;;
13989;SDS011;7069;52.528;13.316;2023-05-08T14:21:11;1.63;;;1.52;;
13989;SDS011;7069;52.528;13.316;2023-05-08T14:23:37;2.40;;;1.90;;
13989;SDS011;7069;52.528;13.316;2023-05-08T14:26:05;2.17;;;1.60;;
13989;SDS011;7069;52.528;13.316;2023-05-08T14:28:31;3.70;;;1.67;;
13989;SDS011;7069;52.528;13.316;2023-05-08T14:30:58;1.70;;;1.60;;
13989;SDS011;7069;52.528;13.316;2023-05-08T14:33:26;3.10;;;1.90;;
13989;SDS011;7069;52.528;13.316;2023-05-08T14:35:52;2.58;;;1.67;;
13989;SDS011;7069;52.528;13.316;2023-05-08T14:38:19;2.53;;;1.70;;
13989;SDS011;7069;52.528;13.316;2023-05-08T14:40:48;3.78;;;1.95;;
13989;SDS011;7069;52.528;13.316;2023-05-08T14:43:14;2.70;;;1.50;;
13989;SDS011;7069;52.528;13.316;2023-05-08T14:45:41;1.70;;;1.60;;
13989;SDS011;7069;52.528;13.316;2023-05-08T14:48:07;2.28;;;2.08;;
13989;SDS011;7069;52.528;13.316;2023-05-08T14:50:35;1.90;;;1.75;;
13989;SDS011;7069;52.528;13.316;2023-05-08T14:53:02;1.85;;;1.75;;
13989;SDS011;7069;52.528;13.316;2023-05-08T14:55:29;2.35;;;1.98;;
13989;SDS011;7069;52.528;13.316;2023-05-08T14:57:55;3.53;;;1.92;;
13989;SDS011;7069;52.528;13.316;2023-05-08T15:00:22;2.25;;;2.05;;
13989;SDS011;7069;52.528;13.316;2023-05-08T15:02:49;2.78;;;2.13;;